createdAt,value
2022-12-18T00:01:32.669Z,55.60
2022-12-18T00:04:03.477Z,59.40
2022-12-18T00:06:33.736Z,54.30
2022-12-18T00:09:02.930Z,56.70
2022-12-18T00:11:32.060Z,54.20
2022-12-18T00:14:00.981Z,58.10
2022-12-18T00:16:31.269Z,59.30
2022-12-18T00:19:01.136Z,56.70
2022-12-18T00:21:30.871Z,55.20
2022-12-18T00:24:00.572Z,54.60
2022-12-18T00:26:31.392Z,57.30
2022-12-18T00:29:03.175Z,59.20
2022-12-18T00:31:32.294Z,56.70
2022-12-18T00:34:02.707Z,58.00
2022-12-18T00:36:34.310Z,52.70
2022-12-18T00:39:04.876Z,55.50
2022-12-18T00:41:51.869Z,59.60
2022-12-18T00:44:20.027Z,54.40
2022-12-18T00:46:48.873Z,53.70
2022-12-18T00:49:19.132Z,52.20
2022-12-18T00:51:48.649Z,54.30
2022-12-18T00:54:17.523Z,52.40
2022-12-18T00:56:49.024Z,59.40
2022-12-18T00:59:19.018Z,57.90
2022-12-18T01:01:47.624Z,55.90
2022-12-18T01:04:16.393Z,57.90
2022-12-18T01:06:46.867Z,61.10
2022-12-18T01:09:15.084Z,56.40
2022-12-18T01:11:42.970Z,61.60
2022-12-18T01:14:12.611Z,58.70
2022-12-18T01:16:40.824Z,54.50
2022-12-18T01:19:08.783Z,48.60
2022-12-18T01:21:36.653Z,52.30
2022-12-18T01:24:07.301Z,56.50
2022-12-18T01:26:35.244Z,51.90
2022-12-18T01:29:04.185Z,55.70
2022-12-18T01:31:35.138Z,51.00
2022-12-18T01:34:06.140Z,49.90
2022-12-18T01:36:39.976Z,51.40
2022-12-18T01:39:12.331Z,52.80
2022-12-18T01:42:01.979Z,50.90
2022-12-18T01:44:57.266Z,53.50
2022-12-18T01:47:37.935Z,50.50
2022-12-18T01:50:16.879Z,53.40
2022-12-18T01:52:48.829Z,48.30
2022-12-18T01:55:19.799Z,48.90
2022-12-18T01:57:49.225Z,48.40
2022-12-18T02:00:21.343Z,44.40
2022-12-18T02:02:49.517Z,51.40
2022-12-18T02:05:23.840Z,47.30
2022-12-18T02:10:30.154Z,45.70
2022-12-18T02:13:10.969Z,46.50
2022-12-18T02:15:49.143Z,47.50
2022-12-18T02:18:46.432Z,51.30
2022-12-18T02:21:47.167Z,55.20
2022-12-18T02:24:26.483Z,50.50
2022-12-18T02:27:00.480Z,52.10
2022-12-18T02:29:50.524Z,51.20
2022-12-18T02:32:32.706Z,53.40
2022-12-18T02:35:05.680Z,57.40
2022-12-18T02:37:36.195Z,55.00
2022-12-18T02:40:06.422Z,53.40
2022-12-18T02:42:34.795Z,53.00
2022-12-18T02:45:03.504Z,55.50
2022-12-18T02:47:39.421Z,57.50
2022-12-18T02:50:10.652Z,59.40
2022-12-18T02:53:30.380Z,54.70
2022-12-18T02:56:15.921Z,55.80
2022-12-18T02:58:59.014Z,57.60
2022-12-18T03:02:12.360Z,56.20
2022-12-18T03:05:03.850Z,58.70
2022-12-18T03:07:47.145Z,54.40
2022-12-18T03:10:21.354Z,53.50
2022-12-18T03:12:55.669Z,53.70
2022-12-18T03:15:30.112Z,55.60
2022-12-18T03:18:08.855Z,57.50
2022-12-18T03:20:40.878Z,56.30
2022-12-18T03:23:14.135Z,53.10
2022-12-18T03:25:44.867Z,53.40
2022-12-18T03:28:20.777Z,54.60
2022-12-18T03:31:00.654Z,55.70
2022-12-18T03:33:39.477Z,55.80
2022-12-18T03:36:08.157Z,51.00
2022-12-18T03:38:36.280Z,50.10
2022-12-18T03:41:16.692Z,53.50
2022-12-18T03:44:12.613Z,55.20
2022-12-18T03:46:56.136Z,57.40
2022-12-18T03:49:41.152Z,58.60
2022-12-18T03:52:19.077Z,54.70
2022-12-18T03:54:47.972Z,54.70
2022-12-18T03:57:20.712Z,52.70
2022-12-18T03:59:54.077Z,52.20
2022-12-18T04:02:24.911Z,53.60
2022-12-18T04:04:57.956Z,62.30
2022-12-18T04:07:26.386Z,56.40
2022-12-18T04:09:57.706Z,50.20
2022-12-18T04:12:27.327Z,50.20
2022-12-18T04:14:55.481Z,51.30
2022-12-18T04:17:24.845Z,55.80
2022-12-18T04:19:53.109Z,58.40
2022-12-18T04:22:21.965Z,56.40
2022-12-18T04:24:53.489Z,53.60
2022-12-18T04:27:29.400Z,54.20
2022-12-18T04:30:00.637Z,52.20
2022-12-18T04:32:28.632Z,56.30
2022-12-18T04:34:56.592Z,58.50
2022-12-18T04:37:24.858Z,58.30
2022-12-18T04:39:52.985Z,57.60
2022-12-18T04:42:26.931Z,58.00
2022-12-18T04:44:54.817Z,56.80
2022-12-18T04:47:47.972Z,59.80
2022-12-18T04:50:15.933Z,61.60
2022-12-18T04:52:44.079Z,61.70
2022-12-18T04:55:11.980Z,62.10
2022-12-18T04:57:39.909Z,59.30
2022-12-18T05:00:08.838Z,55.70
2022-12-18T05:02:36.879Z,55.60
2022-12-18T05:05:05.565Z,54.20
2022-12-18T05:07:33.482Z,59.80
2022-12-18T05:10:01.708Z,61.70
2022-12-18T05:12:32.326Z,63.50
2022-12-18T05:15:00.413Z,60.30
2022-12-18T05:17:28.400Z,59.40
2022-12-18T05:19:56.315Z,59.20
2022-12-18T05:22:24.239Z,65.40
2022-12-18T05:24:52.168Z,69.10
2022-12-18T05:27:21.672Z,66.30
2022-12-18T05:29:49.638Z,67.40
2022-12-18T05:32:23.203Z,63.60
2022-12-18T05:34:51.221Z,60.50
2022-12-18T05:37:19.256Z,67.10
2022-12-18T05:39:47.162Z,70.00
2022-12-18T05:42:15.416Z,69.00
2022-12-18T05:44:44.713Z,63.00
2022-12-18T05:47:12.571Z,59.70
2022-12-18T05:49:40.723Z,58.00
2022-12-18T05:52:08.777Z,60.90
2022-12-18T05:54:36.701Z,62.30
2022-12-18T05:57:04.653Z,62.50
2022-12-18T05:59:32.648Z,69.00
2022-12-18T06:02:00.702Z,61.20
2022-12-18T06:04:32.113Z,64.10
2022-12-18T06:07:00.330Z,62.80
2022-12-18T06:09:29.937Z,64.30
2022-12-18T06:11:57.900Z,59.60
2022-12-18T06:14:25.861Z,60.80
2022-12-18T06:16:53.880Z,59.80
2022-12-18T06:19:21.899Z,58.20
2022-12-18T06:21:51.310Z,63.10
2022-12-18T06:24:19.207Z,66.50
2022-12-18T06:26:47.105Z,67.70
2022-12-18T06:29:15.212Z,63.90
2022-12-18T06:31:43.137Z,60.70
2022-12-18T06:34:11.828Z,65.00
2022-12-18T06:36:39.793Z,69.00
2022-12-18T06:39:07.844Z,73.00
2022-12-18T06:41:37.168Z,71.70
2022-12-18T06:44:05.116Z,69.10
2022-12-18T06:46:33.337Z,61.70
2022-12-18T06:49:01.315Z,66.50
2022-12-18T06:51:29.425Z,63.30
2022-12-18T06:53:57.422Z,66.60
2022-12-18T06:56:25.319Z,69.50
2022-12-18T06:58:53.608Z,71.30
2022-12-18T07:01:22.292Z,71.00
2022-12-18T07:03:57.951Z,64.90
2022-12-18T07:06:26.690Z,68.40
2022-12-18T07:08:55.148Z,66.80
2022-12-18T07:11:23.226Z,73.30
2022-12-18T07:13:51.197Z,72.10
2022-12-18T07:16:25.192Z,71.00
2022-12-18T07:18:56.541Z,71.90
2022-12-18T07:21:25.522Z,66.20
2022-12-18T07:23:53.425Z,67.30
2022-12-18T07:26:22.837Z,66.60
2022-12-18T07:28:51.417Z,68.60
2022-12-18T07:31:22.242Z,67.60
2022-12-18T07:33:51.984Z,74.30
2022-12-18T07:36:20.935Z,72.30
2022-12-18T07:38:50.249Z,70.00
2022-12-18T07:41:18.196Z,60.60
2022-12-18T07:43:46.697Z,66.30
2022-12-18T07:46:16.731Z,65.20
2022-12-18T07:48:49.437Z,67.00
2022-12-18T07:51:19.692Z,67.30
2022-12-18T07:53:49.439Z,69.50
2022-12-18T07:56:30.485Z,63.30
2022-12-18T07:59:00.419Z,66.10
2022-12-18T08:01:28.850Z,71.80
2022-12-18T08:03:58.703Z,71.80
2022-12-18T08:06:26.785Z,75.10
2022-12-18T08:08:56.753Z,73.80
2022-12-18T08:11:26.885Z,73.10
2022-12-18T08:13:55.192Z,74.80
2022-12-18T08:16:25.044Z,78.90
2022-12-18T08:18:54.870Z,79.80
2022-12-18T08:21:29.351Z,70.40
2022-12-18T08:24:00.143Z,78.10
2022-12-18T08:26:30.466Z,73.30
2022-12-18T08:28:59.847Z,74.90
2022-12-18T08:31:29.766Z,76.20
2022-12-18T08:33:58.315Z,72.20
2022-12-18T08:36:26.503Z,70.30
2022-12-18T08:38:55.508Z,71.40
2022-12-18T08:41:23.680Z,69.60
2022-12-18T08:44:10.667Z,62.90
2022-12-18T08:46:40.932Z,65.00
2022-12-18T08:49:10.580Z,68.70
2022-12-18T08:51:39.742Z,66.70
2022-12-18T08:54:08.131Z,67.00
2022-12-18T08:56:36.141Z,75.40
2022-12-18T08:59:05.457Z,74.10
2022-12-18T09:01:33.627Z,71.50
2022-12-18T09:04:02.030Z,61.50
2022-12-18T09:06:29.970Z,59.50
2022-12-18T09:08:58.456Z,64.30
2022-12-18T09:11:29.598Z,67.00
2022-12-18T09:13:59.192Z,65.50
2022-12-18T09:16:32.380Z,67.20
2022-12-18T09:19:01.618Z,65.10
2022-12-18T09:21:35.803Z,59.90
2022-12-18T09:24:08.017Z,62.00
2022-12-18T09:26:37.731Z,67.80
2022-12-18T09:29:08.308Z,57.50
2022-12-18T09:31:37.174Z,67.30
2022-12-18T09:34:05.199Z,70.40
2022-12-18T09:36:33.273Z,65.20
2022-12-18T09:39:06.289Z,61.30
2022-12-18T09:41:41.977Z,53.00
2022-12-18T09:44:33.971Z,57.90
2022-12-18T09:47:19.056Z,48.70
2022-12-18T09:49:50.734Z,50.30
2022-12-18T09:52:42.298Z,48.10
2022-12-18T09:55:36.486Z,52.10
2022-12-18T09:58:19.929Z,54.80
2022-12-18T10:00:47.856Z,58.00
2022-12-18T10:03:17.297Z,49.10
2022-12-18T10:05:52.116Z,52.00
2022-12-18T10:08:25.911Z,54.10
2022-12-18T10:10:58.523Z,48.90
2022-12-18T10:13:36.104Z,50.40
2022-12-18T10:16:16.557Z,46.50
2022-12-18T10:19:22.451Z,45.70
2022-12-18T10:22:03.816Z,48.70
2022-12-18T10:25:00.400Z,56.70
2022-12-18T10:27:29.675Z,106.10
2022-12-18T10:29:59.043Z,61.90
2022-12-18T10:32:30.388Z,42.40
2022-12-18T10:35:00.791Z,40.00
2022-12-18T10:37:30.931Z,49.50
2022-12-18T10:40:15.476Z,48.10
2022-12-18T10:43:04.220Z,50.10
2022-12-18T10:45:32.275Z,45.20
2022-12-18T10:48:00.238Z,47.30
2022-12-18T10:51:09.099Z,46.00
2022-12-18T10:53:28.698Z,46.70
2022-12-18T10:55:59.842Z,47.10
2022-12-18T10:58:32.578Z,45.30
2022-12-18T11:01:08.173Z,40.80
2022-12-18T11:03:42.494Z,53.60
2022-12-18T11:06:19.829Z,46.60
2022-12-18T11:09:19.948Z,45.00
2022-12-18T11:11:53.474Z,47.60
2022-12-18T11:14:27.710Z,51.90
2022-12-18T11:17:24.440Z,46.30
2022-12-18T11:19:45.221Z,47.00
2022-12-18T11:22:27.636Z,47.00
2022-12-18T11:25:35.788Z,45.70
2022-12-18T11:28:05.750Z,57.50
2022-12-18T11:30:36.070Z,47.70
2022-12-18T11:33:31.124Z,45.40
2022-12-18T11:36:04.813Z,49.90
2022-12-18T11:38:40.388Z,46.60
2022-12-18T11:41:17.876Z,44.80
2022-12-18T11:43:56.873Z,42.90
2022-12-18T11:46:32.050Z,46.20
2022-12-18T11:49:07.304Z,48.10
2022-12-18T11:52:25.403Z,46.10
2022-12-18T11:54:56.670Z,46.90
2022-12-18T11:57:35.976Z,52.70
2022-12-18T12:00:36.620Z,49.50
2022-12-18T12:03:04.524Z,52.90
2022-12-18T12:05:37.762Z,50.70
2022-12-18T12:08:08.764Z,51.00
2022-12-18T12:11:08.665Z,51.10
2022-12-18T12:13:58.441Z,50.90
2022-12-18T12:16:34.638Z,49.70
2022-12-18T12:19:20.763Z,45.80
2022-12-18T12:22:05.076Z,45.80
2022-12-18T12:25:09.335Z,44.20
2022-12-18T12:28:08.184Z,41.90
2022-12-18T12:30:45.188Z,41.30
2022-12-18T12:33:34.830Z,42.90
2022-12-18T12:36:27.079Z,46.10
2022-12-18T12:39:06.463Z,41.30
2022-12-18T12:41:55.303Z,45.70
2022-12-18T12:44:28.605Z,44.70
2022-12-18T12:47:01.114Z,46.10
2022-12-18T12:52:35.943Z,59.80
2022-12-18T12:55:14.441Z,56.40
2022-12-18T12:57:47.416Z,48.90
2022-12-18T13:00:25.299Z,43.80
2022-12-18T13:03:05.378Z,47.90
2022-12-18T13:05:55.047Z,53.80
2022-12-18T13:08:25.430Z,50.10
2022-12-18T13:11:17.109Z,41.70
2022-12-18T13:13:43.500Z,45.90
2022-12-18T13:13:56.656Z,50.10
2022-12-18T13:16:26.815Z,54.50
2022-12-18T13:18:59.900Z,45.70
2022-12-18T13:21:32.061Z,45.20
2022-12-18T13:24:32.559Z,47.70
2022-12-18T13:27:00.524Z,47.00
2022-12-18T13:29:43.176Z,47.70
2022-12-18T13:32:22.948Z,51.70
2022-12-18T13:35:23.070Z,51.20
2022-12-18T13:37:54.358Z,52.80
2022-12-18T13:40:41.643Z,55.70
2022-12-18T13:43:18.670Z,59.20
2022-12-18T13:46:02.895Z,55.00
2022-12-18T13:48:36.615Z,52.90
2022-12-18T13:51:08.069Z,54.00
2022-12-18T13:53:58.571Z,56.60
2022-12-18T13:56:30.877Z,57.30
2022-12-18T13:59:34.892Z,63.00
2022-12-18T14:02:17.978Z,61.30
2022-12-18T14:04:48.059Z,59.60
2022-12-18T14:07:17.867Z,59.30
2022-12-18T14:09:55.645Z,53.90
2022-12-18T14:12:54.706Z,55.80
2022-12-18T14:15:35.126Z,59.00
2022-12-18T14:18:24.532Z,59.90
2022-12-18T14:20:55.854Z,64.80
2022-12-18T14:23:42.292Z,65.80
2022-12-18T14:26:46.520Z,70.80
2022-12-18T14:29:28.913Z,70.10
2022-12-18T14:32:17.890Z,72.30
2022-12-18T14:34:50.650Z,73.00
2022-12-18T14:37:23.599Z,70.90
2022-12-18T14:40:10.520Z,75.80
2022-12-18T14:42:39.159Z,78.20
2022-12-18T14:45:44.363Z,78.10
2022-12-18T14:48:12.564Z,80.30
2022-12-18T14:50:42.025Z,82.70
2022-12-18T14:53:34.004Z,81.10
2022-12-18T14:56:14.849Z,82.40
2022-12-18T14:58:53.289Z,90.00
2022-12-18T15:01:35.289Z,92.00
2022-12-18T15:04:04.778Z,87.60
2022-12-18T15:06:38.284Z,99.10
2022-12-18T15:09:25.238Z,96.70
2022-12-18T15:12:01.408Z,94.70
2022-12-18T15:14:39.818Z,90.90
2022-12-18T15:17:19.074Z,84.40
2022-12-18T15:19:49.196Z,125.00
2022-12-18T15:22:30.716Z,90.70
2022-12-18T15:25:04.202Z,83.50
2022-12-18T15:27:38.972Z,76.20
2022-12-18T15:30:09.979Z,73.80
2022-12-18T15:32:39.476Z,71.50
2022-12-18T15:35:15.785Z,74.60
2022-12-18T15:37:44.738Z,83.60
2022-12-18T15:40:20.171Z,87.00
2022-12-18T15:43:07.782Z,85.80
2022-12-18T15:45:36.937Z,82.80
2022-12-18T15:48:22.003Z,101.20
2022-12-18T15:50:55.282Z,93.00
2022-12-18T15:53:24.745Z,85.00
2022-12-18T15:56:11.198Z,79.30
2022-12-18T15:58:40.521Z,82.00
2022-12-18T16:01:10.523Z,78.90
2022-12-18T16:03:39.102Z,78.60
2022-12-18T16:06:10.350Z,75.20
2022-12-18T16:08:38.348Z,80.50
2022-12-18T16:11:39.407Z,82.10
2022-12-18T16:14:21.553Z,84.10
2022-12-18T16:16:53.689Z,92.60
2022-12-18T16:19:22.678Z,88.20
2022-12-18T16:21:53.202Z,89.50
2022-12-18T16:24:30.480Z,88.70
2022-12-18T16:27:24.618Z,89.00
2022-12-18T16:29:52.537Z,88.10
2022-12-18T16:32:24.541Z,87.10
2022-12-18T16:34:52.753Z,80.70
2022-12-18T16:37:20.800Z,75.90
2022-12-18T16:39:48.778Z,80.60
2022-12-18T16:42:45.301Z,79.60
2022-12-18T16:45:16.405Z,73.60
2022-12-18T16:47:44.881Z,78.50
2022-12-18T16:50:13.165Z,76.80
2022-12-18T16:52:44.041Z,77.30
2022-12-18T16:55:12.030Z,81.40
2022-12-18T16:57:40.011Z,78.00
2022-12-18T17:00:09.813Z,74.90
2022-12-18T17:02:37.959Z,78.40
2022-12-18T17:05:06.424Z,72.50
2022-12-18T17:07:34.511Z,77.20
2022-12-18T17:10:06.733Z,78.40
2022-12-18T17:12:34.737Z,75.50
2022-12-18T17:15:03.252Z,72.40
2022-12-18T17:17:31.294Z,70.80
2022-12-18T17:19:59.641Z,71.80
2022-12-18T17:22:28.205Z,68.10
2022-12-18T17:24:56.456Z,58.90
2022-12-18T17:27:24.396Z,65.10
2022-12-18T17:29:52.322Z,59.60
2022-12-18T17:32:20.223Z,67.40
2022-12-18T17:34:48.486Z,66.20
2022-12-18T17:37:16.513Z,65.70
2022-12-18T17:39:44.605Z,63.60
2022-12-18T17:42:15.317Z,68.80
2022-12-18T17:44:44.376Z,69.00
2022-12-18T17:47:15.354Z,66.00
2022-12-18T17:49:43.283Z,63.00
2022-12-18T17:52:11.458Z,60.70
2022-12-18T17:54:42.055Z,57.50
2022-12-18T17:57:12.120Z,61.40
2022-12-18T17:59:43.711Z,64.00
2022-12-18T18:02:12.300Z,60.60
2022-12-18T18:04:40.609Z,64.30
2022-12-18T18:07:17.971Z,56.30
2022-12-18T18:09:46.321Z,58.70
2022-12-18T18:12:32.627Z,65.20
2022-12-18T18:15:00.588Z,71.80
2022-12-18T18:17:28.970Z,79.10
2022-12-18T18:19:58.939Z,81.70
2022-12-18T18:22:27.141Z,66.70
2022-12-18T18:24:55.490Z,66.40
2022-12-18T18:27:23.644Z,63.10
2022-12-18T18:29:51.768Z,63.80
2022-12-18T18:32:19.750Z,64.10
2022-12-18T18:34:49.816Z,66.00
2022-12-18T18:37:18.105Z,58.40
2022-12-18T18:39:46.171Z,58.30
2022-12-18T18:42:14.947Z,56.90
2022-12-18T18:44:48.604Z,60.60
2022-12-18T18:47:24.186Z,59.00
2022-12-18T18:49:52.203Z,58.10
2022-12-18T18:52:20.193Z,54.90
2022-12-18T18:55:11.787Z,55.10
2022-12-18T18:57:37.341Z,57.00
2022-12-18T19:00:09.956Z,57.00
2022-12-18T19:02:52.163Z,56.40
2022-12-18T19:05:33.140Z,53.60
2022-12-18T19:08:01.303Z,55.30
2022-12-18T19:10:29.887Z,52.80
2022-12-18T19:13:17.512Z,55.30
2022-12-18T19:15:46.069Z,61.70
2022-12-18T19:18:14.932Z,59.90
2022-12-18T19:20:43.122Z,62.40
2022-12-18T19:23:11.066Z,56.60
2022-12-18T19:25:42.698Z,56.50
2022-12-18T19:28:19.282Z,54.30
2022-12-18T19:30:55.374Z,60.10
2022-12-18T19:33:45.207Z,55.20
2022-12-18T19:36:23.016Z,55.90
2022-12-18T19:38:53.567Z,56.50
2022-12-18T19:41:25.638Z,55.90
2022-12-18T19:43:55.592Z,55.30
2022-12-18T19:46:24.599Z,54.90
2022-12-18T19:48:54.900Z,58.00
2022-12-18T19:51:29.856Z,55.70
2022-12-18T19:54:01.635Z,55.90
2022-12-18T19:56:35.087Z,54.30
2022-12-18T19:59:04.945Z,56.90
2022-12-18T20:01:35.962Z,54.40
2022-12-18T20:04:04.464Z,54.90
2022-12-18T20:06:53.389Z,55.00
2022-12-18T20:09:24.904Z,62.40
2022-12-18T20:11:56.124Z,61.50
2022-12-18T20:14:24.177Z,58.10
2022-12-18T20:16:53.765Z,60.50
2022-12-18T20:19:22.687Z,55.80
2022-12-18T20:21:51.240Z,56.90
2022-12-18T20:24:21.926Z,50.70
2022-12-18T20:26:49.988Z,50.50
2022-12-18T20:29:20.689Z,48.80
2022-12-18T20:31:48.720Z,54.60
2022-12-18T20:34:16.978Z,61.70
2022-12-18T20:36:49.261Z,49.40
2022-12-18T20:39:17.995Z,46.90
2022-12-18T20:41:47.266Z,51.00
2022-12-18T20:44:22.372Z,47.50
2022-12-18T20:47:03.358Z,49.00
2022-12-18T20:49:36.490Z,50.40
2022-12-18T20:52:06.177Z,48.60
2022-12-18T20:54:34.140Z,48.90
2022-12-18T20:57:03.839Z,47.30
2022-12-18T20:59:31.808Z,45.40
2022-12-18T21:01:59.960Z,50.00
2022-12-18T21:04:31.100Z,52.90
2022-12-18T21:07:02.645Z,52.00
2022-12-18T21:09:37.610Z,52.60
2022-12-18T21:12:42.550Z,51.80
2022-12-18T21:15:22.847Z,49.10
2022-12-18T21:17:54.891Z,51.90
2022-12-18T21:20:23.093Z,54.00
2022-12-18T21:22:51.535Z,54.30
2022-12-18T21:25:21.910Z,55.50
2022-12-18T21:27:49.929Z,52.10
2022-12-18T21:30:18.002Z,52.10
2022-12-18T21:32:46.074Z,53.00
2022-12-18T21:35:14.132Z,52.50
2022-12-18T21:37:42.133Z,51.70
2022-12-18T21:40:10.664Z,52.30
2022-12-18T21:42:57.454Z,50.10
2022-12-18T21:45:25.538Z,52.30
2022-12-18T21:47:53.488Z,53.80
2022-12-18T21:50:21.478Z,53.60
2022-12-18T21:52:49.495Z,53.40
2022-12-18T21:55:17.470Z,55.00
2022-12-18T21:57:45.528Z,62.20
2022-12-18T22:00:17.461Z,59.70
2022-12-18T22:02:49.138Z,59.40
2022-12-18T22:05:37.151Z,60.10
2022-12-18T22:08:06.942Z,61.00
2022-12-18T22:10:36.025Z,65.50
2022-12-18T22:13:05.777Z,63.60
2022-12-18T22:15:33.964Z,63.20
2022-12-18T22:18:02.079Z,63.50
2022-12-18T22:20:30.254Z,62.30
2022-12-18T22:22:59.504Z,64.20
2022-12-18T22:25:30.801Z,57.70
2022-12-18T22:28:17.081Z,54.40
2022-12-18T22:30:45.072Z,54.90
2022-12-18T22:33:13.105Z,50.60
2022-12-18T22:36:07.572Z,51.80
2022-12-18T22:38:35.549Z,52.10
2022-12-18T22:41:03.510Z,49.20
2022-12-18T22:43:31.448Z,50.00
2022-12-18T22:46:03.142Z,49.00
2022-12-18T22:48:31.105Z,47.70
2022-12-18T22:50:59.707Z,52.90
2022-12-18T22:53:27.786Z,50.10
2022-12-18T22:56:03.636Z,50.20
2022-12-18T22:58:31.622Z,50.40
2022-12-18T23:00:59.557Z,48.00
2022-12-18T23:03:28.188Z,51.10
2022-12-18T23:06:03.383Z,51.30
2022-12-18T23:08:31.883Z,50.70
2022-12-18T23:11:00.574Z,52.40
2022-12-18T23:13:29.056Z,50.50
2022-12-18T23:15:57.044Z,53.50
2022-12-18T23:18:25.188Z,50.80
2022-12-18T23:20:53.071Z,53.10
2022-12-18T23:23:21.109Z,52.70
2022-12-18T23:25:49.022Z,54.50
2022-12-18T23:28:16.932Z,54.10
2022-12-18T23:30:44.827Z,54.70
2022-12-18T23:33:12.726Z,51.80
2022-12-18T23:35:40.839Z,52.40
2022-12-18T23:38:08.830Z,51.90
2022-12-18T23:40:37.872Z,57.40
2022-12-18T23:43:05.939Z,52.60
2022-12-18T23:45:37.691Z,54.10
2022-12-18T23:48:05.728Z,52.10
2022-12-18T23:50:35.725Z,51.00
2022-12-18T23:53:05.580Z,51.40
2022-12-18T23:55:39.520Z,53.80
2022-12-18T23:58:14.981Z,50.30
